Time;durP1;ratioP1;P1;durP2;ratioP2;P2;SDS_P1;SDS_P2;PMS_P1;PMS_P2;Temp;Humidity;BMP_temperature;BMP_pressure;BME280_temperature;BME280_humidity;BME280_pressure;Samples;Min_cycle;Max_cycle;Signal;HPM_P1;HPM_P2
2023/08/25 00:03:38;;;;;;;;;;;21.60;89.50;;;20.58;79.46;100050.44;9731292;29;98622;-87
2023/08/25 00:08:43;;;;;;;;;;;21.60;90.20;;;20.49;80.70;100048.34;9734527;29;98031;-87
2023/08/25 00:13:46;;;;;;;;;;;21.50;88.70;;;20.40;81.10;100037.06;9720903;29;99405;-88
2023/08/25 00:18:50;;;;;;;;;;;21.40;90.80;;;20.26;81.66;100038.34;9729255;29;98775;-88
2023/08/25 00:23:53;;;;;;;;;;;21.20;90.90;;;20.14;81.90;100038.34;9723490;29;98042;-87
2023/08/25 00:28:57;;;;;;;;;;;21.10;91.20;;;19.97;83.37;100038.25;9722887;29;98511;-87
2023/08/25 00:34:02;;;;;;;;;;;21.00;90.60;;;19.82;84.06;100045.94;9756900;29;98850;-87
2023/08/25 00:39:06;;;;;;;;;;;20.90;91.20;;;19.78;84.81;100045.59;9756182;29;99382;-87
2023/08/25 00:44:09;;;;;;;;;;;20.80;91.50;;;19.73;85.17;100058.09;9749288;29;97160;-86
2023/08/25 00:49:13;;;;;;;;;;;20.80;91.70;;;19.75;85.35;100053.31;9760613;29;98227;-87
2023/08/25 00:54:19;;;;;;;;;;;20.80;91.70;;;19.81;85.63;100033.53;9765561;29;98643;-87
2023/08/25 00:59:22;;;;;;;;;;;20.80;92.30;;;19.89;85.22;100030.47;9772236;29;97525;-88
2023/08/25 01:04:26;;;;;;;;;;;20.90;92.40;;;19.86;85.08;100020.16;9766028;29;101255;-87
2023/08/25 01:09:30;;;;;;;;;;;20.80;92.20;;;19.82;85.76;100023.56;9764612;29;96761;-87
2023/08/25 01:14:56;;;;;;;;;;;20.80;92.90;;;19.77;85.37;100026.94;9779090;29;97623;-86
2023/08/25 01:20:06;;;;;;;;;;;20.70;92.30;;;19.72;85.96;100005.25;9756763;29;97586;-87
2023/08/25 01:25:23;;;;;;;;;;;20.70;92.80;;;19.71;86.14;99998.22;9741328;29;98307;-87
2023/08/25 01:30:31;;;;;;;;;;;20.70;93.00;;;19.61;86.58;100006.03;9773943;29;98496;-86
2023/08/25 01:35:57;;;;;;;;;;;20.60;92.60;;;19.59;87.39;100037.81;9777679;29;96793;-87
2023/08/25 01:41:24;;;;;;;;;;;20.60;93.30;;;19.50;87.74;100040.81;9769626;29;96855;-87
2023/08/25 01:46:28;;;;;;;;;;;20.50;94.10;;;19.40;88.33;100028.94;9749565;29;96852;-87
2023/08/25 01:51:32;;;;;;;;;;;20.40;94.30;;;19.37;88.66;100029.38;9773079;29;100261;-87
2023/08/25 01:56:36;;;;;;;;;;;20.30;94.00;;;19.24;88.87;100003.47;9763435;29;96679;-86
2023/08/25 02:01:40;;;;;;;;;;;20.30;94.40;;;19.25;89.62;99997.88;9743972;29;98819;-87
2023/08/25 02:06:43;;;;;;;;;;;20.20;94.50;;;19.23;89.66;99991.06;9753116;29;98359;-87
2023/08/25 02:11:47;;;;;;;;;;;20.10;95.00;;;19.20;89.47;99986.13;9757338;29;97594;-87
2023/08/25 02:16:50;;;;;;;;;;;20.20;94.30;;;19.19;90.33;99979.06;9747050;29;98429;-86
2023/08/25 02:21:53;;;;;;;;;;;20.20;95.30;;;19.11;90.53;99974.84;9760867;29;98224;-88
2023/08/25 02:26:57;;;;;;;;;;;20.10;95.00;;;19.06;90.58;99965.81;9775347;29;97123;-87
2023/08/25 02:32:02;;;;;;;;;;;20.10;94.90;;;19.12;90.65;99971.09;9757727;29;97451;-86
2023/08/25 02:37:06;;;;;;;;;;;20.10;95.00;;;19.13;90.86;99969.22;9768639;29;96715;-87
2023/08/25 02:42:09;;;;;;;;;;;20.10;95.50;;;19.12;91.17;99964.91;9761644;29;98300;-86
2023/08/25 02:47:13;;;;;;;;;;;20.10;95.60;;;19.08;91.22;99961.03;9773000;29;97537;-87
2023/08/25 02:52:16;;;;;;;;;;;20.00;95.40;;;19.02;92.31;99978.94;9759025;29;96720;-86
2023/08/25 02:57:20;;;;;;;;;;;20.00;96.30;;;19.01;91.98;100012.25;9759449;29;96718;-87
2023/08/25 03:02:24;;;;;;;;;;;20.00;96.60;;;18.95;92.80;100026.63;9758973;29;96684;-87
2023/08/25 03:07:27;;;;;;;;;;;19.90;96.60;;;18.95;93.10;100045.50;9769110;29;98877;-87
2023/08/25 03:12:31;;;;;;;;;;;20.00;97.80;;;18.94;93.22;100039.28;9773765;29;96712;-87
2023/08/25 03:17:34;;;;;;;;;;;19.90;98.00;;;19.05;92.64;100024.25;9739052;29;96716;-86
2023/08/25 03:22:38;;;;;;;;;;;20.00;97.50;;;19.22;92.62;100029.81;9763826;29;96703;-86
2023/08/25 03:27:42;;;;;;;;;;;20.20;97.40;;;19.35;91.42;100042.28;9765636;29;97525;-86
2023/08/25 03:32:46;;;;;;;;;;;20.30;97.40;;;19.41;90.59;100026.00;9753414;29;97676;-86
2023/08/25 03:37:50;;;;;;;;;;;20.40;97.00;;;19.61;90.67;100047.31;9773524;29;96794;-87
2023/08/25 03:42:54;;;;;;;;;;;20.50;97.20;;;19.71;90.39;100046.75;9760337;29;98378;-87
2023/08/25 03:48:00;;;;;;;;;;;20.70;96.80;;;19.81;89.69;100049.69;9779070;29;96820;-86
2023/08/25 03:53:03;;;;;;;;;;;20.90;96.30;;;19.96;90.00;100060.84;9758147;29;97176;-88
2023/08/25 03:58:07;;;;;;;;;;;21.00;95.90;;;20.00;88.70;100110.59;9769879;29;97411;-88
2023/08/25 04:03:10;;;;;;;;;;;21.10;96.80;;;20.21;87.20;100047.16;9776074;29;98807;-87
2023/08/25 04:08:14;;;;;;;;;;;21.20;96.50;;;20.39;86.14;100080.47;9784972;29;96857;-87
2023/08/25 04:13:19;;;;;;;;;;;21.30;96.30;;;20.55;85.79;100066.28;9776803;29;98697;-87
2023/08/25 04:18:23;;;;;;;;;;;21.50;96.20;;;20.64;85.27;100037.06;9778119;29;96924;-86
2023/08/25 04:23:28;;;;;;;;;;;21.60;96.10;;;20.65;84.41;100031.44;9786671;29;97043;-86
2023/08/25 04:28:32;;;;;;;;;;;21.70;95.60;;;20.77;84.54;100017.91;9759054;29;97821;-87
2023/08/25 04:33:36;;;;;;;;;;;21.80;95.80;;;20.77;84.38;100017.91;9762325;29;96811;-87
2023/08/25 04:38:41;;;;;;;;;;;21.80;95.70;;;20.71;83.89;100010.75;9779220;29;98106;-87
2023/08/25 04:43:47;;;;;;;;;;;21.70;95.50;;;20.69;84.90;99993.94;9789152;29;96802;-87
2023/08/25 04:48:50;;;;;;;;;;;21.80;95.60;;;20.72;84.76;99970.00;9765666;29;98374;-85
2023/08/25 04:53:54;;;;;;;;;;;21.80;95.80;;;20.70;85.11;99964.03;9779011;29;97217;-87
2023/08/25 04:58:57;;;;;;;;;;;21.80;95.80;;;20.68;85.70;99976.94;9768181;29;97685;-88
2023/08/25 05:04:01;;;;;;;;;;;21.80;95.90;;;20.64;86.26;99978.50;9763199;29;98664;-88
2023/08/25 05:09:04;;;;;;;;;;;21.80;96.20;;;20.67;86.72;99982.59;9759871;29;98359;-87
2023/08/25 05:14:07;;;;;;;;;;;21.70;96.20;;;20.68;86.80;99973.41;9754918;29;97181;-88
2023/08/25 05:19:13;;;;;;;;;;;21.70;96.20;;;20.66;87.24;99978.25;9783055;29;96997;-89
2023/08/25 05:24:22;;;;;;;;;;;21.70;96.40;;;20.68;87.83;99959.91;9780893;29;101392;-88
2023/08/25 05:29:27;;;;;;;;;;;21.70;96.50;;;20.69;88.07;99921.91;9781565;29;96918;-87
2023/08/25 05:34:31;;;;;;;;;;;21.70;96.50;;;20.68;88.46;99941.03;9759475;29;96766;-86
2023/08/25 05:39:34;;;;;;;;;;;21.70;97.10;;;20.72;88.40;99953.00;9761482;29;96722;-88
2023/08/25 05:44:38;;;;;;;;;;;21.70;97.00;;;20.76;88.95;99956.84;9760498;29;97754;-88
2023/08/25 05:49:42;;;;;;;;;;;21.80;97.50;;;20.75;88.70;99961.44;9761247;29;97629;-87
2023/08/25 05:54:45;;;;;;;;;;;21.80;97.40;;;20.84;88.73;99964.56;9761385;29;98598;-87
2023/08/25 05:59:49;;;;;;;;;;;21.80;97.60;;;20.87;89.14;99969.50;9756781;29;98758;-89
2023/08/25 06:04:53;;;;;;;;;;;21.90;98.10;;;20.94;88.95;99961.25;9758423;29;98719;-88
2023/08/25 06:09:56;;;;;;;;;;;21.90;98.00;;;21.05;88.39;99957.66;9754122;29;98615;-88
2023/08/25 06:15:00;;;;;;;;;;;22.00;98.00;;;21.22;88.21;99938.78;9756041;29;98472;-90
2023/08/25 06:20:04;;;;;;;;;;;22.20;97.30;;;21.34;88.28;99943.06;9746411;29;97362;-88
2023/08/25 06:25:08;;;;;;;;;;;22.40;97.10;;;21.53;88.02;99943.69;9773091;29;97796;-89
2023/08/25 06:30:13;;;;;;;;;;;22.60;97.20;;;21.71;86.65;99953.41;9771308;29;97688;-89
2023/08/25 06:35:16;;;;;;;;;;;22.80;97.00;;;21.81;86.09;99948.16;9740019;29;97011;-88
2023/08/25 06:40:20;;;;;;;;;;;22.90;96.60;;;22.03;85.34;99937.38;9726451;29;97460;-89
2023/08/25 06:45:23;;;;;;;;;;;23.10;96.60;;;22.22;84.71;99954.16;9760925;29;96691;-89
2023/08/25 06:50:27;;;;;;;;;;;23.30;96.40;;;22.37;82.89;99950.84;9745244;29;97369;-91
2023/08/25 06:55:35;;;;;;;;;;;23.40;96.20;;;22.60;82.07;99952.47;9730668;29;98001;-92
2023/08/25 07:00:39;;;;;;;;;;;23.60;95.80;;;22.79;79.44;99923.16;9741536;29;98204;-91
2023/08/25 07:05:42;;;;;;;;;;;23.90;95.20;;;23.04;79.02;99950.56;9745265;29;98688;-91
2023/08/25 07:10:46;;;;;;;;;;;24.10;95.00;;;23.13;77.73;99946.31;9756286;29;97239;-91
2023/08/25 07:15:49;;;;;;;;;;;24.20;94.50;;;23.22;77.30;99965.66;9742235;29;97042;-89
2023/08/25 07:20:53;;;;;;;;;;;24.30;94.30;;;23.32;76.39;99964.91;9731669;29;98388;-89
2023/08/25 07:25:57;;;;;;;;;;;24.40;94.20;;;23.32;75.16;99967.63;9744356;29;98961;-90
2023/08/25 07:31:00;;;;;;;;;;;24.50;94.00;;;23.45;75.87;99969.91;9745100;29;96824;-91
2023/08/25 07:36:04;;;;;;;;;;;24.50;93.90;;;23.68;74.96;99956.03;9743377;29;96635;-91
2023/08/25 07:41:08;;;;;;;;;;;24.70;93.70;;;23.87;73.78;99956.44;9764575;29;96946;-92
2023/08/25 07:46:11;;;;;;;;;;;24.90;93.40;;;24.16;73.84;99951.44;9765262;29;96681;-91
2023/08/25 07:51:16;;;;;;;;;;;25.10;93.40;;;24.55;73.47;99937.53;9765526;29;96873;-92
2023/08/25 07:56:29;;;;;;;;;;;25.40;93.60;;;24.75;71.43;99926.72;9763637;29;96673;-92
2023/08/25 08:01:33;;;;;;;;;;;25.70;92.80;;;24.90;71.13;99919.72;9757148;29;96739;-91
2023/08/25 08:06:36;;;;;;;;;;;25.90;92.70;;;25.10;70.81;99930.63;9760356;29;96853;-92
2023/08/25 08:11:40;;;;;;;;;;;26.10;92.60;;;25.23;69.36;99929.28;9753453;29;96505;-92
2023/08/25 08:16:44;;;;;;;;;;;26.20;91.90;;;25.30;69.80;99918.94;9768310;29;96561;-92
2023/08/25 08:21:47;;;;;;;;;;;26.30;92.10;;;25.52;71.11;99935.00;9769237;29;96573;-91
2023/08/25 08:26:51;;;;;;;;;;;26.60;92.30;;;25.68;69.89;99927.66;9732999;29;96912;-91
2023/08/25 08:31:57;;;;;;;;;;;26.80;91.90;;;25.88;68.36;99933.09;9740364;29;96724;-91
2023/08/25 08:37:01;;;;;;;;;;;27.00;91.60;;;26.08;68.09;99922.13;9762587;29;97410;-93
2023/08/25 08:42:07;;;;;;;;;;;27.10;91.40;;;26.20;67.74;99912.84;9767038;29;96866;-92
2023/08/25 08:47:11;;;;;;;;;;;27.30;91.30;;;26.45;66.60;99903.78;9767765;29;96613;-92
2023/08/25 08:52:14;;;;;;;;;;;27.50;90.80;;;26.72;67.68;99904.19;9747676;29;96918;-91
2023/08/25 08:57:18;;;;;;;;;;;27.80;91.30;;;26.95;66.18;99908.13;9740153;29;96726;-91
2023/08/25 09:02:22;;;;;;;;;;;28.00;90.40;;;27.26;65.01;99903.28;9797875;29;97196;-90
2023/08/25 09:07:32;;;;;;;;;;;28.30;90.10;;;27.60;63.65;99908.72;9777596;29;96722;-92
2023/08/25 09:12:36;;;;;;;;;;;28.60;89.40;;;27.88;62.86;99915.28;9739726;29;96790;-92
2023/08/25 09:17:40;;;;;;;;;;;28.80;89.10;;;28.03;61.19;99908.84;9768021;29;97622;-92
2023/08/25 09:22:53;;;;;;;;;;;29.10;88.40;;;28.21;61.58;99899.88;9745251;29;99025;-92
2023/08/25 09:27:57;;;;;;;;;;;29.20;87.80;;;28.30;59.14;99894.59;9752794;29;96701;-92
2023/08/25 09:33:06;;;;;;;;;;;29.40;86.30;;;28.42;59.33;99895.00;9755794;29;98571;-92
2023/08/25 09:38:28;;;;;;;;;;;29.50;85.80;;;28.57;59.09;99893.19;9754248;29;97032;-93
2023/08/25 09:43:33;;;;;;;;;;;29.60;85.30;;;28.71;57.99;99896.81;9750983;29;99730;-91
2023/08/25 09:48:37;;;;;;;;;;;29.80;84.50;;;28.92;56.80;99887.22;9768337;29;97586;-92
2023/08/25 09:53:41;;;;;;;;;;;30.00;83.50;;;28.79;56.14;99880.56;9742395;29;96986;-94
2023/08/25 09:58:45;;;;;;;;;;;30.00;82.20;;;28.96;57.06;99890.16;9729757;29;96668;-92
2023/08/25 10:03:49;;;;;;;;;;;30.00;82.40;;;29.22;56.59;99871.44;9748547;29;97351;-92
2023/08/25 10:08:55;;;;;;;;;;;30.30;82.20;;;29.47;55.94;99861.97;9716877;30;96734;-93
2023/08/25 10:14:02;;;;;;;;;;;30.50;81.60;;;29.65;53.98;99857.56;9733019;29;96646;-93
2023/08/25 10:19:15;;;;;;;;;;;30.60;80.60;;;29.80;54.29;99854.50;9747802;29;98213;-94
2023/08/25 10:24:21;;;;;;;;;;;30.80;80.60;;;30.04;52.15;99863.34;9726737;29;100166;-94
2023/08/25 10:29:25;;;;;;;;;;;31.10;79.70;;;30.24;53.39;99859.41;9732428;29;97257;-92
2023/08/25 10:34:35;;;;;;;;;;;31.30;79.10;;;30.40;50.86;99851.66;9744977;29;98864;-91
2023/08/25 10:39:52;;;;;;;;;;;31.50;78.30;;;30.56;52.59;99850.19;9727348;29;98665;-93
2023/08/25 10:45:08;;;;;;;;;;;31.60;77.70;;;30.55;50.01;99845.84;9737249;29;96775;-92
2023/08/25 10:50:12;;;;;;;;;;;31.70;76.50;;;30.69;49.68;99845.00;9738546;29;99148;-92
2023/08/25 10:55:24;;;;;;;;;;;31.70;76.10;;;30.90;49.72;99837.91;9754831;29;98407;-90
2023/08/25 11:00:34;;;;;;;;;;;31.90;75.40;;;30.98;47.80;99837.16;9738396;29;98565;-91
2023/08/25 11:05:39;;;;;;;;;;;32.10;74.00;;;31.12;48.83;99837.09;9728512;29;98355;-93
2023/08/25 11:10:43;;;;;;;;;;;32.20;74.10;;;31.30;46.92;99829.78;9753243;29;97968;-93
2023/08/25 11:15:47;;;;;;;;;;;32.50;73.20;;;31.43;47.72;99835.22;9749969;29;97441;-92
2023/08/25 11:20:52;;;;;;;;;;;32.60;72.50;;;31.61;47.39;99829.81;9752906;29;98073;-92
2023/08/25 11:25:56;;;;;;;;;;;32.80;72.60;;;31.60;44.83;99826.22;9735361;29;97139;-91
2023/08/25 11:31:00;;;;;;;;;;;32.80;71.60;;;31.68;44.90;99830.97;9730394;29;98238;-91
2023/08/25 11:36:05;;;;;;;;;;;32.80;69.70;;;31.81;42.54;99812.78;9741194;29;97975;-92
2023/08/25 11:41:10;;;;;;;;;;;32.90;67.30;;;32.03;40.36;99814.63;9733175;29;97603;-92
2023/08/25 11:46:15;;;;;;;;;;;33.10;63.80;;;32.33;42.75;99815.63;9734659;29;97294;-93
2023/08/25 11:51:18;;;;;;;;;;;33.30;66.60;;;32.59;39.21;99810.16;9757747;29;97797;-93
2023/08/25 11:56:23;;;;;;;;;;;33.40;62.30;;;32.77;37.06;99808.22;9751462;29;97353;-92
2023/08/25 12:01:35;;;;;;;;;;;33.60;59.90;;;32.74;36.76;99812.41;9747920;29;96738;-94
2023/08/25 12:06:38;;;;;;;;;;;33.60;59.70;;;32.76;36.40;99809.34;9729918;29;98587;-94
2023/08/25 12:11:42;;;;;;;;;;;33.60;59.30;;;32.87;37.38;99815.31;9719418;29;96737;-95
2023/08/25 12:16:46;;;;;;;;;;;33.70;59.90;;;33.05;35.79;99807.84;9747406;29;97979;-95
2023/08/25 12:21:54;;;;;;;;;;;33.90;58.40;;;33.24;35.14;99809.13;9730617;29;97520;-92
2023/08/25 12:26:57;;;;;;;;;;;34.10;58.10;;;33.19;35.26;99794.72;9728125;29;96806;-93
2023/08/25 12:32:02;;;;;;;;;;;34.10;57.60;;;33.01;35.58;99796.72;9746839;29;98618;-92
2023/08/25 12:37:05;;;;;;;;;;;33.90;58.60;;;32.90;36.12;99799.00;9748545;29;98737;-92
2023/08/25 12:42:09;;;;;;;;;;;33.90;58.40;;;32.94;36.78;99793.66;9737335;29;96693;-92
2023/08/25 12:47:13;;;;;;;;;;;33.80;58.90;;;32.99;38.29;99790.72;9747198;29;98259;-93
2023/08/25 12:52:17;;;;;;;;;;;33.80;60.50;;;33.17;39.96;99773.03;9727447;29;97522;-93
2023/08/25 12:57:21;;;;;;;;;;;34.00;62.00;;;33.26;39.29;99776.53;9724651;29;97473;-92
2023/08/25 13:02:24;;;;;;;;;;;34.10;61.40;;;33.35;38.12;99767.44;9731136;29;100005;-92
2023/08/25 13:07:29;;;;;;;;;;;34.20;60.80;;;33.48;39.02;99767.25;9746062;29;97137;-92
2023/08/25 13:12:33;;;;;;;;;;;34.40;61.20;;;33.55;38.27;99766.75;9745679;29;96746;-93
2023/08/25 13:17:36;;;;;;;;;;;34.50;60.60;;;33.61;38.81;99757.16;9775542;29;99293;-93
2023/08/25 13:22:40;;;;;;;;;;;34.50;61.10;;;33.64;39.07;99759.22;9761268;29;97324;-92
2023/08/25 13:27:43;;;;;;;;;;;34.70;61.00;;;33.76;39.77;99753.00;9754534;29;99949;-91
2023/08/25 13:32:47;;;;;;;;;;;34.90;61.60;;;33.56;38.41;99749.06;9766174;29;97033;-93
2023/08/25 13:37:50;;;;;;;;;;;34.80;60.00;;;33.64;38.85;99761.97;9743083;29;98853;-92
2023/08/25 13:42:54;;;;;;;;;;;34.80;60.50;;;33.65;39.20;99768.28;9760359;29;99876;-91
2023/08/25 13:47:58;;;;;;;;;;;34.70;60.90;;;33.60;39.81;99755.53;9759818;29;101159;-92
2023/08/25 13:53:01;;;;;;;;;;;34.60;61.10;;;33.45;39.93;99764.34;9757407;29;101397;-91
2023/08/25 13:58:05;;;;;;;;;;;34.50;60.90;;;33.41;40.03;99764.22;9767830;29;98169;-89
2023/08/25 14:03:09;;;;;;;;;;;34.40;61.50;;;33.39;41.23;99763.69;9758248;29;98765;-91
2023/08/25 14:08:13;;;;;;;;;;;34.40;62.10;;;33.32;41.88;99766.16;9758637;29;97062;-91
2023/08/25 14:13:17;;;;;;;;;;;34.30;62.80;;;33.21;41.43;99765.72;9730927;24;100040;-88
2023/08/25 14:18:20;;;;;;;;;;;34.20;62.80;;;33.12;41.67;99767.69;9758941;29;98680;-87
2023/08/25 14:23:28;;;;;;;;;;;34.20;62.80;;;33.02;42.51;99759.78;9769281;29;98433;-89
2023/08/25 14:28:32;;;;;;;;;;;34.10;63.30;;;32.97;43.31;99762.72;9752793;29;98879;-89
2023/08/25 14:33:35;;;;;;;;;;;34.00;63.50;;;32.78;42.80;99763.03;9769541;29;98635;-89
2023/08/25 14:38:42;;;;;;;;;;;33.90;63.50;;;32.63;42.43;99756.13;9741426;29;98839;-90
2023/08/25 14:43:46;;;;;;;;;;;33.70;63.20;;;32.55;43.09;99747.88;9749472;29;98642;-85
2023/08/25 14:48:51;;;;;;;;;;;33.60;64.00;;;32.63;43.40;99772.63;9767318;29;96723;-87
2023/08/25 14:53:55;;;;;;;;;;;33.70;63.80;;;32.80;43.53;99759.97;9757578;29;97224;-86
2023/08/25 14:58:59;;;;;;;;;;;34.00;64.20;;;32.86;42.48;99758.66;9776707;29;97362;-86
2023/08/25 15:04:04;;;;;;;;;;;34.10;63.20;;;32.95;41.17;99756.72;9778375;29;98679;-87
2023/08/25 15:09:08;;;;;;;;;;;34.20;62.60;;;33.07;40.46;99754.09;9758814;29;98524;-86
2023/08/25 15:14:12;;;;;;;;;;;34.40;61.30;;;33.23;40.90;99751.63;9781080;29;97692;-88
2023/08/25 15:19:15;;;;;;;;;;;34.50;61.60;;;33.63;42.25;99754.84;9760304;29;97539;-88
2023/08/25 15:24:19;;;;;;;;;;;34.90;62.70;;;33.89;39.75;99756.66;9785550;29;97351;-87
2023/08/25 15:29:22;;;;;;;;;;;35.30;61.30;;;34.21;39.20;99742.19;9781858;29;97271;-88
2023/08/25 15:34:45;;;;;;;;;;;35.60;60.80;;;34.34;37.23;99727.31;9791950;29;97422;-88
2023/08/25 15:39:51;;;;;;;;;;;35.70;59.20;;;34.40;38.53;99732.63;9770695;29;97325;-89
2023/08/25 15:44:55;;;;;;;;;;;35.70;59.50;;;34.24;38.72;99724.16;9780004;29;96652;-89
2023/08/25 15:49:58;;;;;;;;;;;35.50;59.80;;;33.97;39.51;99725.50;9776933;29;96683;-89
2023/08/25 15:55:02;;;;;;;;;;;35.20;60.10;;;33.74;40.13;99723.03;9773355;29;97648;-88
2023/08/25 16:00:06;;;;;;;;;;;35.00;60.60;;;33.62;39.24;99720.19;9773337;29;98257;-88
2023/08/25 16:05:10;;;;;;;;;;;34.90;60.00;;;33.77;40.36;99724.34;9769829;29;96840;-88
2023/08/25 16:10:14;;;;;;;;;;;34.90;60.80;;;33.78;40.65;99721.22;9787598;29;96981;-90
2023/08/25 16:15:18;;;;;;;;;;;34.90;61.30;;;33.51;40.12;99721.72;9784566;29;96839;-89
2023/08/25 16:20:22;;;;;;;;;;;34.70;60.70;;;33.34;40.31;99721.75;9782625;29;96944;-88
2023/08/25 16:25:27;;;;;;;;;;;34.40;61.20;;;33.25;42.66;99721.81;9773079;29;98648;-89
2023/08/25 16:30:30;;;;;;;;;;;34.30;62.50;;;33.04;41.78;99721.72;9780804;29;96750;-88
2023/08/25 16:35:34;;;;;;;;;;;34.20;62.10;;;32.97;42.93;99710.41;9771240;29;98562;-88
2023/08/25 16:40:37;;;;;;;;;;;34.10;63.30;;;32.85;42.83;99716.56;9767872;29;96699;-91
2023/08/25 16:45:42;;;;;;;;;;;33.90;63.20;;;32.67;44.30;99713.06;9770523;29;98025;-89
2023/08/25 16:50:46;;;;;;;;;;;33.60;64.10;;;32.35;45.50;99711.66;9787133;29;96943;-88
2023/08/25 16:55:50;;;;;;;;;;;33.20;65.60;;;32.02;45.87;99711.28;9767688;29;98643;-87
2023/08/25 17:00:54;;;;;;;;;;;32.90;66.00;;;31.70;47.71;99715.28;9775299;29;97947;-88
2023/08/25 17:06:00;;;;;;;;;;;32.50;67.10;;;31.34;48.26;99721.78;9772249;29;98389;-88
2023/08/25 17:11:04;;;;;;;;;;;32.20;67.40;;;30.89;50.33;99715.59;9760619;29;97133;-89
2023/08/25 17:16:09;;;;;;;;;;;31.70;69.50;;;30.55;51.59;99724.38;9776370;29;100619;-88
2023/08/25 17:21:12;;;;;;;;;;;31.30;70.10;;;30.22;53.40;99718.31;9785075;29;97857;-88
2023/08/25 17:26:15;;;;;;;;;;;30.90;71.40;;;29.91;53.57;99712.69;9790890;29;96881;-89
2023/08/25 17:31:19;;;;;;;;;;;30.60;71.80;;;29.64;54.55;99713.56;9769700;29;97619;-88
2023/08/25 17:36:22;;;;;;;;;;;30.30;72.50;;;29.33;55.38;99714.16;9771126;29;100231;-88
2023/08/25 17:41:26;;;;;;;;;;;30.00;73.00;;;29.04;55.80;99718.00;9770521;29;97710;-88
2023/08/25 17:46:29;;;;;;;;;;;29.80;73.00;;;28.78;54.70;99724.97;9784861;29;97210;-88
2023/08/25 17:51:33;;;;;;;;;;;29.60;72.30;;;28.61;55.81;99725.56;9778243;29;98779;-88
2023/08/25 17:56:36;;;;;;;;;;;29.40;72.90;;;28.42;56.48;99728.31;9779385;29;97316;-88
2023/08/25 18:01:40;;;;;;;;;;;29.20;73.50;;;28.17;56.15;99731.41;9759427;29;98604;-87
2023/08/25 18:06:44;;;;;;;;;;;29.00;73.00;;;27.95;56.86;99735.53;9781275;29;97968;-88
2023/08/25 18:11:48;;;;;;;;;;;28.80;72.90;;;27.81;58.17;99748.28;9768517;29;96768;-88
2023/08/25 18:16:51;;;;;;;;;;;28.70;73.70;;;27.68;59.89;99759.88;9766761;29;96707;-88
2023/08/25 18:21:56;;;;;;;;;;;28.60;75.10;;;27.59;61.24;99762.44;9777960;29;97594;-89
2023/08/25 18:26:59;;;;;;;;;;;28.40;77.10;;;27.31;61.97;99783.22;9778762;29;96858;-88
2023/08/25 18:32:03;;;;;;;;;;;28.20;78.10;;;27.06;63.66;99772.56;9783044;29;98634;-88
2023/08/25 18:37:06;;;;;;;;;;;27.90;79.40;;;26.93;63.52;99774.81;9769140;29;97539;-88
2023/08/25 18:42:10;;;;;;;;;;;27.70;78.30;;;26.82;63.62;99772.47;9766852;29;96892;-88
2023/08/25 18:47:14;;;;;;;;;;;27.60;78.70;;;26.66;65.46;99779.94;9764451;29;98720;-88
2023/08/25 18:52:17;;;;;;;;;;;27.50;80.80;;;26.45;66.59;99789.34;9763064;29;99209;-89
2023/08/25 18:57:25;;;;;;;;;;;27.30;80.90;;;26.30;67.52;99791.06;9761651;29;98153;-90
2023/08/25 19:02:28;;;;;;;;;;;27.10;81.80;;;26.20;67.12;99802.00;9782478;29;97425;-90
2023/08/25 19:07:32;;;;;;;;;;;27.00;80.90;;;26.13;67.96;99804.22;9764677;29;97335;-90
2023/08/25 19:12:35;;;;;;;;;;;26.90;82.00;;;25.98;68.05;99802.41;9763616;29;99204;-90
2023/08/25 19:17:39;;;;;;;;;;;26.80;81.70;;;25.85;69.52;99795.66;9773892;29;97091;-90
2023/08/25 19:22:42;;;;;;;;;;;26.70;82.70;;;25.73;69.61;99803.31;9784027;29;96803;-90
2023/08/25 19:27:46;;;;;;;;;;;26.50;82.90;;;25.62;69.74;99793.53;9761773;29;97134;-89
2023/08/25 19:32:50;;;;;;;;;;;26.50;82.70;;;25.57;71.52;99807.13;9761130;29;97270;-89
2023/08/25 19:37:53;;;;;;;;;;;26.40;85.10;;;25.42;72.11;99788.94;9776221;29;96948;-90
2023/08/25 19:42:57;;;;;;;;;;;26.20;84.50;;;25.32;71.53;99787.06;9764050;29;97578;-95
2023/08/25 19:48:01;;;;;;;;;;;26.10;84.00;;;25.28;70.69;99779.72;9786807;29;96651;-94
2023/08/25 19:53:08;;;;;;;;;;;26.10;83.60;;;25.20;70.56;99772.94;9763685;29;98965;-91
2023/08/25 19:59:32;;;;;;;;;;;;;;;;;;;;;
2023/08/25 20:04:49;;;;;;;;;;;26.00;84.70;;;25.04;70.94;99766.69;9787252;29;96636;-94
2023/08/25 20:09:58;;;;;;;;;;;25.90;84.90;;;24.96;71.42;99777.31;9784526;29;96888;-95
2023/08/25 20:15:02;;;;;;;;;;;25.90;84.70;;;24.86;72.15;99782.72;9775903;29;97120;-95
2023/08/25 20:20:09;;;;;;;;;;;25.80;85.20;;;24.79;73.12;99781.09;9774045;29;97761;-95
2023/08/25 20:25:13;;;;;;;;;;;25.70;86.30;;;24.77;73.02;99801.47;9766576;29;97471;-94
2023/08/25 20:30:21;;;;;;;;;;;25.60;85.70;;;24.67;71.96;99787.88;9774883;29;96800;-96
2023/08/25 20:35:27;;;;;;;;;;;25.60;85.20;;;24.63;72.57;99798.47;9779124;29;96829;-95
2023/08/25 20:40:31;;;;;;;;;;;25.60;85.60;;;24.61;72.57;99806.09;9773681;29;97015;-94
2023/08/25 20:45:36;;;;;;;;;;;25.50;85.10;;;24.55;72.97;99799.00;9774168;29;96853;-95
2023/08/25 20:50:46;;;;;;;;;;;25.50;85.90;;;24.49;73.11;99798.19;9766482;29;98841;-95
2023/08/25 20:55:49;;;;;;;;;;;25.40;85.80;;;24.42;74.70;99799.53;9775724;29;98165;-92
2023/08/25 21:00:53;;;;;;;;;;;25.30;87.60;;;24.27;75.81;99806.50;9777735;29;96823;-92
2023/08/25 21:06:00;;;;;;;;;;;25.20;88.50;;;24.17;76.58;99817.38;9785766;29;97492;-96
2023/08/25 21:11:03;;;;;;;;;;;25.10;90.00;;;24.00;76.72;99819.47;9796913;29;96704;-95
2023/08/25 21:16:07;;;;;;;;;;;24.90;90.10;;;23.89;77.01;99815.91;9788268;29;97982;-95
2023/08/25 21:21:11;;;;;;;;;;;24.80;90.10;;;23.95;76.89;99824.88;9778493;29;97096;-95
2023/08/25 21:26:20;;;;;;;;;;;24.80;90.00;;;23.92;77.01;99825.38;9771559;29;97221;-95
2023/08/25 21:31:23;;;;;;;;;;;24.70;89.70;;;23.93;76.61;99833.28;9774208;29;98603;-94
2023/08/25 21:36:27;;;;;;;;;;;24.80;89.10;;;23.93;76.74;99837.88;9777245;29;97115;-93
2023/08/25 21:41:31;;;;;;;;;;;24.80;89.20;;;23.89;76.69;99829.47;9775879;29;97048;-94
2023/08/25 21:46:36;;;;;;;;;;;24.80;88.70;;;23.88;76.75;99833.25;9787555;29;98424;-95
2023/08/25 21:51:39;;;;;;;;;;;24.80;88.50;;;23.91;76.95;99831.91;9783197;29;96670;-94
2023/08/25 21:56:43;;;;;;;;;;;24.80;88.50;;;23.92;77.72;99828.91;9762106;29;96860;-94
2023/08/25 22:01:47;;;;;;;;;;;24.90;89.20;;;23.88;78.17;99835.97;9776347;29;96738;-94
2023/08/25 22:06:51;;;;;;;;;;;24.80;89.60;;;23.85;77.96;99832.97;9766193;29;96689;-95
2023/08/25 22:11:54;;;;;;;;;;;24.80;89.70;;;23.74;78.45;99830.19;9794980;29;97164;-95
2023/08/25 22:16:58;;;;;;;;;;;24.70;90.30;;;23.63;78.92;99814.97;9773467;29;98128;-95
2023/08/25 22:22:04;;;;;;;;;;;24.60;90.30;;;23.55;79.47;99812.69;9779317;29;97149;-95
2023/08/25 22:27:07;;;;;;;;;;;24.60;90.40;;;23.54;79.54;99824.63;9767030;29;96972;-95
2023/08/25 22:32:11;;;;;;;;;;;24.50;90.30;;;23.46;79.99;99817.00;9771277;29;96639;-95
2023/08/25 22:37:14;;;;;;;;;;;24.40;90.70;;;23.36;80.58;99800.66;9766845;29;96939;-95
2023/08/25 22:42:18;;;;;;;;;;;24.30;91.20;;;23.33;80.85;99806.59;9758403;29;97277;-95
2023/08/25 22:47:23;;;;;;;;;;;24.20;91.20;;;23.20;82.20;99797.81;9777849;29;98298;-95
2023/08/25 22:52:26;;;;;;;;;;;24.20;91.70;;;23.16;81.89;99796.75;9765443;29;97976;-94
2023/08/25 22:57:30;;;;;;;;;;;24.00;91.50;;;23.09;81.80;99787.16;9767832;29;97277;-95
2023/08/25 23:02:33;;;;;;;;;;;24.00;92.00;;;23.03;81.72;99790.91;9771040;29;97069;-95
2023/08/25 23:07:37;;;;;;;;;;;23.90;91.60;;;22.99;81.48;99782.50;9784699;29;97119;-95
2023/08/25 23:12:40;;;;;;;;;;;23.90;91.40;;;22.99;80.70;99774.38;9800679;29;96633;-94
2023/08/25 23:17:44;;;;;;;;;;;23.90;91.30;;;23.01;80.88;99776.81;9808678;29;97107;-95
2023/08/25 23:22:47;;;;;;;;;;;23.90;91.50;;;22.96;80.87;99764.88;9768456;29;97311;-95